Albany, New York
Traffic Map
Current Weather Conditions
Albany, New York
Overcast
Overcast
21°
Feels Like: 21°
Wind Chill: 21° Ceiling: 1400
Heat Index: 21° Visibility: 10mi
Dew Point: 19° Wind: 6mph
Humidity: 90% Direction: 340° (NNW)
Pressure: 29.84in Gusts: 0mph
Raw Report DataKALB 240603Z 34005KT 10SM FEW008 BKN014 OVC033 21/19 A2984 RMK AO2 T02060189 $
Traffic Incident Summary
Active as of:
Severity:
Category:
InformationThere was an issue retrieving the traffic information for this location. Please try a different location or try again shortly.
Advertisements
Track Severe Weather on mobile